createdAt,value
2022-12-12T00:01:53.329Z,18.43
2022-12-12T00:04:21.598Z,17.90
2022-12-12T00:06:50.167Z,19.03
2022-12-12T00:09:18.353Z,18.50
2022-12-12T00:11:46.570Z,17.77
2022-12-12T00:14:14.716Z,17.50
2022-12-12T00:16:44.193Z,18.43
2022-12-12T00:19:12.367Z,18.03
2022-12-12T00:21:40.565Z,17.67
2022-12-12T00:24:09.088Z,18.60
2022-12-12T00:26:37.453Z,18.80
2022-12-12T00:29:06.184Z,18.47
2022-12-12T00:31:34.372Z,18.93
2022-12-12T00:34:03.866Z,18.57
2022-12-12T00:36:32.938Z,18.60
2022-12-12T00:39:01.558Z,19.97
2022-12-12T00:41:29.772Z,19.07
2022-12-12T00:43:57.994Z,19.30
2022-12-12T00:46:27.462Z,18.03
2022-12-12T00:48:56.290Z,19.57
2022-12-12T00:51:26.841Z,20.13
2022-12-12T00:53:55.427Z,18.83
2022-12-12T00:56:24.890Z,19.60
2022-12-12T00:58:53.345Z,19.87
2022-12-12T01:01:23.665Z,18.83
2022-12-12T01:03:52.307Z,19.50
2022-12-12T01:06:20.477Z,19.60
2022-12-12T01:08:50.219Z,18.97
2022-12-12T01:11:19.857Z,19.47
2022-12-12T01:13:48.790Z,18.47
2022-12-12T01:16:17.347Z,19.63
2022-12-12T01:18:45.618Z,18.57
2022-12-12T01:21:15.057Z,19.73
2022-12-12T01:23:43.515Z,19.33
2022-12-12T01:26:14.990Z,19.17
2022-12-12T01:28:43.563Z,19.33
2022-12-12T01:31:11.846Z,19.10
2022-12-12T01:33:40.654Z,19.63
2022-12-12T01:36:09.161Z,18.73
2022-12-12T01:38:38.103Z,18.77
2022-12-12T01:41:06.416Z,17.93
2022-12-12T01:43:35.848Z,18.87
2022-12-12T01:46:18.938Z,18.40
2022-12-12T01:48:48.597Z,16.87
2022-12-12T01:51:17.983Z,17.50
2022-12-12T01:53:46.711Z,18.03
2022-12-12T01:56:16.472Z,18.17
2022-12-12T01:58:46.930Z,18.30
2022-12-12T02:01:15.935Z,18.27
2022-12-12T02:03:44.782Z,18.90
2022-12-12T02:06:14.117Z,18.70
2022-12-12T02:08:43.143Z,18.40
2022-12-12T02:11:11.263Z,19.07
2022-12-12T02:13:39.450Z,18.13
2022-12-12T02:16:16.764Z,17.40
2022-12-12T02:18:51.991Z,18.80
2022-12-12T02:21:23.085Z,19.07
2022-12-12T02:24:06.186Z,18.17
2022-12-12T02:26:52.233Z,18.60
2022-12-12T02:29:38.059Z,18.70
2022-12-12T02:32:10.218Z,18.70
2022-12-12T02:34:43.882Z,18.33
2022-12-12T02:37:14.665Z,18.90
2022-12-12T02:39:49.115Z,19.13
2022-12-12T02:42:21.782Z,18.53
2022-12-12T02:44:54.770Z,18.27
2022-12-12T02:47:25.742Z,18.37
2022-12-12T02:49:56.432Z,18.30
2022-12-12T02:52:24.913Z,18.23
2022-12-12T02:54:53.054Z,18.70
2022-12-12T02:57:22.408Z,17.53
2022-12-12T02:59:53.768Z,18.63
2022-12-12T03:02:45.700Z,18.33
2022-12-12T03:05:46.356Z,18.53
2022-12-12T03:08:23.000Z,18.97
2022-12-12T03:10:52.374Z,18.23
2022-12-12T03:13:26.145Z,18.87
2022-12-12T03:15:58.761Z,19.27
2022-12-12T03:18:29.586Z,17.90
2022-12-12T03:21:01.909Z,18.97
2022-12-12T03:23:32.102Z,18.30
2022-12-12T03:26:01.858Z,17.87
2022-12-12T03:28:32.784Z,17.87
2022-12-12T03:31:04.004Z,19.30
2022-12-12T03:33:35.674Z,18.80
2022-12-12T03:36:08.099Z,19.17
2022-12-12T03:38:37.958Z,19.23
2022-12-12T03:41:07.309Z,18.93
2022-12-12T03:43:36.949Z,18.47
2022-12-12T03:46:08.493Z,18.87
2022-12-12T03:48:38.939Z,19.37
2022-12-12T03:51:09.861Z,19.37
2022-12-12T03:53:40.211Z,20.63
2022-12-12T03:56:11.242Z,19.87
2022-12-12T03:58:42.171Z,20.63
2022-12-12T04:01:12.916Z,19.37
2022-12-12T04:03:44.722Z,19.97
2022-12-12T04:06:28.839Z,19.03
2022-12-12T04:09:16.707Z,19.50
2022-12-12T04:12:06.669Z,19.10
2022-12-12T04:14:43.814Z,19.37
2022-12-12T04:17:14.472Z,19.77
2022-12-12T04:20:03.122Z,19.17
2022-12-12T04:22:55.401Z,18.77
2022-12-12T04:25:28.781Z,18.50
2022-12-12T04:27:59.710Z,18.80
2022-12-12T04:30:29.798Z,19.00
2022-12-12T04:33:00.372Z,18.67
2022-12-12T04:35:32.726Z,20.20
2022-12-12T04:38:02.736Z,19.07
2022-12-12T04:40:32.324Z,19.07
2022-12-12T04:43:02.481Z,19.43
2022-12-12T04:45:32.800Z,19.10
2022-12-12T04:48:01.860Z,19.57
2022-12-12T04:50:32.282Z,19.27
2022-12-12T04:53:02.634Z,18.83
2022-12-12T04:55:33.306Z,18.80
2022-12-12T04:58:01.665Z,19.73
2022-12-12T05:00:32.514Z,18.77
2022-12-12T05:03:06.305Z,18.70
2022-12-12T05:05:38.216Z,18.87
2022-12-12T05:08:08.140Z,17.67
2022-12-12T05:10:43.226Z,19.17
2022-12-12T05:13:16.843Z,19.43
2022-12-12T05:15:45.414Z,18.13
2022-12-12T05:18:13.713Z,19.87
2022-12-12T05:20:43.215Z,17.20
2022-12-12T05:23:11.386Z,18.60
2022-12-12T05:25:40.351Z,18.47
2022-12-12T05:28:08.486Z,18.43
2022-12-12T05:30:36.674Z,18.80
2022-12-12T05:33:04.929Z,18.53
2022-12-12T05:35:33.833Z,18.13
2022-12-12T05:38:03.937Z,18.43
2022-12-12T05:40:32.081Z,17.97
2022-12-12T05:43:00.258Z,18.97
2022-12-12T05:45:28.422Z,17.60
2022-12-12T05:47:56.542Z,18.40
2022-12-12T05:50:24.662Z,17.93
2022-12-12T05:52:52.830Z,18.67
2022-12-12T05:55:22.296Z,18.57
2022-12-12T05:57:50.481Z,17.73
2022-12-12T06:00:18.790Z,17.90
2022-12-12T06:02:46.988Z,18.53
2022-12-12T06:05:15.513Z,18.60
2022-12-12T06:07:43.808Z,18.03
2022-12-12T06:10:12.110Z,17.90
2022-12-12T06:12:41.580Z,18.53
2022-12-12T06:15:10.023Z,18.10
2022-12-12T06:17:38.345Z,18.70
2022-12-12T06:20:06.992Z,17.77
2022-12-12T06:22:35.934Z,17.87
2022-12-12T06:25:04.151Z,18.23
2022-12-12T06:27:32.259Z,18.33
2022-12-12T06:30:01.712Z,16.97
2022-12-12T06:32:29.876Z,17.17
2022-12-12T06:34:58.094Z,17.63
2022-12-12T06:37:26.289Z,17.43
2022-12-12T06:39:54.445Z,17.37
2022-12-12T06:42:22.620Z,18.10
2022-12-12T06:44:50.806Z,18.40
2022-12-12T06:47:20.298Z,18.47
2022-12-12T06:49:48.456Z,17.60
2022-12-12T06:52:16.661Z,18.63
2022-12-12T06:54:44.800Z,17.77
2022-12-12T06:57:13.208Z,17.60
2022-12-12T06:59:41.460Z,17.27
2022-12-12T07:02:11.376Z,18.17
2022-12-12T07:04:40.892Z,18.07
2022-12-12T07:07:09.104Z,18.60
2022-12-12T07:09:37.292Z,16.93
2022-12-12T07:12:05.710Z,18.63
2022-12-12T07:14:33.826Z,18.37
2022-12-12T07:17:02.001Z,19.37
2022-12-12T07:19:30.156Z,18.57
2022-12-12T07:22:04.170Z,17.87
2022-12-12T07:24:35.800Z,18.47
2022-12-12T07:27:03.938Z,18.43
2022-12-12T07:29:32.372Z,17.80
2022-12-12T07:32:00.580Z,17.67
2022-12-12T07:34:30.556Z,17.83
2022-12-12T07:37:03.045Z,18.53
2022-12-12T07:39:31.811Z,17.60
2022-12-12T07:42:00.123Z,18.03
2022-12-12T07:44:28.283Z,17.60
2022-12-12T07:46:58.885Z,18.50
2022-12-12T07:49:27.102Z,17.80
2022-12-12T07:51:55.262Z,18.03
2022-12-12T07:54:24.700Z,17.93
2022-12-12T07:56:53.031Z,17.87
2022-12-12T07:59:21.186Z,17.87
2022-12-12T08:01:49.407Z,17.60
2022-12-12T08:04:17.696Z,17.53
2022-12-12T08:06:46.000Z,17.83
2022-12-12T08:09:14.160Z,18.00
2022-12-12T08:11:46.970Z,18.13
2022-12-12T08:14:15.369Z,16.63
2022-12-12T08:16:43.505Z,15.97
2022-12-12T08:19:14.765Z,17.73
2022-12-12T08:21:43.625Z,17.87
2022-12-12T08:24:12.918Z,17.17
2022-12-12T08:26:41.108Z,17.73
2022-12-12T08:29:11.600Z,18.20
2022-12-12T08:31:40.010Z,19.13
2022-12-12T08:34:08.454Z,18.63
2022-12-12T08:36:37.301Z,18.50
2022-12-12T08:39:06.940Z,19.33
2022-12-12T08:41:35.643Z,18.60
2022-12-12T08:44:03.902Z,18.63
2022-12-12T08:46:33.509Z,19.63
2022-12-12T08:49:01.767Z,19.47
2022-12-12T08:51:29.935Z,18.70
2022-12-12T08:53:58.129Z,19.33
2022-12-12T08:56:26.267Z,17.43
2022-12-12T08:58:54.482Z,18.80
2022-12-12T09:01:23.687Z,19.23
2022-12-12T09:03:53.935Z,19.03
2022-12-12T09:06:22.493Z,19.77
2022-12-12T09:08:50.683Z,21.10
2022-12-12T09:11:19.255Z,20.20
2022-12-12T09:13:47.463Z,20.77
2022-12-12T09:16:15.666Z,24.60
2022-12-12T09:18:48.712Z,24.77
2022-12-12T09:21:18.997Z,25.30
2022-12-12T09:23:47.162Z,28.97
2022-12-12T09:26:15.334Z,27.03
2022-12-12T09:28:43.535Z,25.60
2022-12-12T09:31:13.109Z,27.17
2022-12-12T09:33:42.810Z,25.53
2022-12-12T09:36:11.867Z,25.37
2022-12-12T09:38:41.555Z,26.63
2022-12-12T09:41:13.211Z,28.17
2022-12-12T09:43:45.875Z,30.07
2022-12-12T09:46:16.853Z,28.20
2022-12-12T09:48:47.729Z,28.83
2022-12-12T09:51:15.986Z,28.20
2022-12-12T09:53:46.996Z,29.10
2022-12-12T09:56:19.476Z,27.60
2022-12-12T09:58:53.942Z,27.77
2022-12-12T10:01:27.723Z,29.30
2022-12-12T10:04:02.406Z,27.80
2022-12-12T10:06:38.906Z,26.07
2022-12-12T10:09:14.126Z,25.60
2022-12-12T10:11:54.319Z,26.43
2022-12-12T10:14:26.857Z,24.63
2022-12-12T10:16:58.083Z,26.43
2022-12-12T10:19:28.266Z,25.10
2022-12-12T10:21:58.282Z,23.00
2022-12-12T10:24:31.475Z,24.07
2022-12-12T10:27:00.209Z,20.83
2022-12-12T10:29:28.799Z,20.77
2022-12-12T10:32:03.324Z,19.43
2022-12-12T10:34:37.183Z,20.27
2022-12-12T10:37:10.248Z,19.40
2022-12-12T10:39:45.360Z,18.43
2022-12-12T10:42:15.714Z,20.13
2022-12-12T10:44:55.552Z,19.23
2022-12-12T10:47:24.037Z,17.90
2022-12-12T10:49:53.167Z,18.77
2022-12-12T10:52:22.663Z,18.43
2022-12-12T10:54:53.374Z,19.80
2022-12-12T10:57:24.138Z,18.93
2022-12-12T10:59:53.254Z,17.53
2022-12-12T11:02:28.618Z,17.83
2022-12-12T11:05:01.464Z,17.30
2022-12-12T11:07:30.241Z,17.03
2022-12-12T11:10:02.305Z,17.70
2022-12-12T11:12:34.859Z,17.73
2022-12-12T11:15:06.850Z,17.77
2022-12-12T11:17:36.001Z,17.57
2022-12-12T11:20:08.432Z,16.93
2022-12-12T11:22:40.114Z,17.77
2022-12-12T11:25:22.300Z,17.60
2022-12-12T11:27:50.611Z,16.57
2022-12-12T11:30:23.886Z,16.17
2022-12-12T11:32:54.936Z,16.67
2022-12-12T11:35:25.866Z,16.83
2022-12-12T11:37:56.251Z,16.40
2022-12-12T11:40:27.262Z,17.10
2022-12-12T11:43:07.440Z,18.20
2022-12-12T11:45:35.654Z,17.47
2022-12-12T11:48:04.063Z,16.73
2022-12-12T11:50:32.353Z,15.77
2022-12-12T11:53:01.512Z,16.63
2022-12-12T11:55:35.829Z,15.77
2022-12-12T11:58:09.707Z,15.83
2022-12-12T12:00:41.718Z,14.83
2022-12-12T12:03:23.221Z,15.50
2022-12-12T12:06:03.217Z,16.10
2022-12-12T12:08:40.258Z,15.37
2022-12-12T12:11:18.054Z,16.07
2022-12-12T12:13:52.606Z,15.20
2022-12-12T12:16:25.681Z,15.53
2022-12-12T12:18:59.801Z,15.70
2022-12-12T12:21:30.125Z,14.80
2022-12-12T12:24:03.979Z,14.97
2022-12-12T12:26:36.214Z,15.67
2022-12-12T12:29:13.356Z,14.23
2022-12-12T12:31:45.507Z,14.67
2022-12-12T12:34:19.694Z,14.33
2022-12-12T12:36:57.202Z,14.90
2022-12-12T12:39:43.479Z,14.83
2022-12-12T12:42:22.715Z,13.93
2022-12-12T12:44:52.477Z,14.17
2022-12-12T12:47:27.125Z,13.83
2022-12-12T12:49:56.925Z,14.63
2022-12-12T12:52:28.080Z,13.83
2022-12-12T12:54:58.466Z,14.10
2022-12-12T12:57:30.346Z,13.20
2022-12-12T13:00:00.726Z,14.20
2022-12-12T13:02:31.467Z,14.07
2022-12-12T13:05:06.870Z,14.63
2022-12-12T13:07:40.899Z,13.83
2022-12-12T13:10:11.008Z,13.57
2022-12-12T13:12:41.588Z,12.93
2022-12-12T13:15:16.194Z,12.97
2022-12-12T13:17:48.698Z,12.13
2022-12-12T13:20:19.773Z,12.00
2022-12-12T13:22:53.462Z,10.53
2022-12-12T13:25:28.645Z,10.50
2022-12-12T13:27:59.522Z,10.90
2022-12-12T13:30:29.785Z,10.20
2022-12-12T13:33:03.362Z,10.70
2022-12-12T13:35:33.264Z,9.90
2022-12-12T13:38:01.991Z,9.80
2022-12-12T13:40:31.262Z,9.53
2022-12-12T13:43:09.024Z,10.37
2022-12-12T13:45:42.881Z,9.70
2022-12-12T13:48:25.932Z,11.07
2022-12-12T13:51:09.354Z,9.67
2022-12-12T13:53:37.576Z,9.60
2022-12-12T13:56:20.657Z,10.30
2022-12-12T13:58:50.147Z,9.57
2022-12-12T14:01:34.563Z,9.43
2022-12-12T14:04:04.089Z,9.23
2022-12-12T14:06:32.623Z,10.17
2022-12-12T14:09:01.103Z,9.40
2022-12-12T14:11:34.019Z,9.60
2022-12-12T14:14:06.677Z,10.20
2022-12-12T14:16:34.927Z,10.10
2022-12-12T14:19:10.027Z,9.70
2022-12-12T14:21:40.344Z,9.90
2022-12-12T14:24:27.420Z,8.87
2022-12-12T14:26:55.964Z,9.57
2022-12-12T14:29:29.389Z,8.97
2022-12-12T14:32:08.790Z,9.27
2022-12-12T14:34:40.541Z,8.80
2022-12-12T14:37:15.831Z,9.33
2022-12-12T14:39:57.452Z,9.63
2022-12-12T14:43:17.787Z,10.43
2022-12-12T14:45:31.187Z,9.67
2022-12-12T14:48:19.380Z,9.70
2022-12-12T14:50:52.632Z,9.10
2022-12-12T14:53:22.433Z,9.30
2022-12-12T14:55:54.994Z,8.97
2022-12-12T14:58:24.506Z,9.23
2022-12-12T15:00:54.996Z,8.70
2022-12-12T15:03:32.681Z,9.43
2022-12-12T15:06:19.699Z,9.47
2022-12-12T15:08:48.186Z,9.13
2022-12-12T15:11:16.805Z,8.87
2022-12-12T15:13:51.230Z,10.27
2022-12-12T15:16:21.652Z,9.60
2022-12-12T15:18:49.828Z,11.57
2022-12-12T15:21:20.922Z,12.17
2022-12-12T15:23:49.082Z,11.20
2022-12-12T15:26:19.216Z,12.07
2022-12-12T15:28:48.385Z,11.30
2022-12-12T15:31:19.013Z,11.43
2022-12-12T15:33:49.407Z,10.80
2022-12-12T15:36:19.420Z,11.33
2022-12-12T15:38:47.727Z,11.37
2022-12-12T15:41:16.021Z,10.53
2022-12-12T15:43:44.961Z,10.53
2022-12-12T15:46:15.183Z,10.57
2022-12-12T15:48:43.701Z,11.33
2022-12-12T15:51:14.891Z,11.43
2022-12-12T15:53:49.077Z,12.90
2022-12-12T15:56:23.876Z,15.60
2022-12-12T15:58:53.728Z,15.23
2022-12-12T16:01:25.938Z,13.17
2022-12-12T16:03:55.043Z,13.77
2022-12-12T16:06:26.642Z,12.73
2022-12-12T16:09:01.510Z,13.17
2022-12-12T16:11:34.676Z,12.03
2022-12-12T16:14:02.905Z,11.70
2022-12-12T16:16:39.173Z,13.77
2022-12-12T16:19:08.285Z,14.57
2022-12-12T16:21:43.551Z,12.73
2022-12-12T16:24:12.946Z,11.77
2022-12-12T16:26:41.093Z,12.57
2022-12-12T16:29:09.342Z,12.17
2022-12-12T16:31:37.483Z,12.13
2022-12-12T16:34:06.006Z,12.97
2022-12-12T16:36:41.478Z,12.83
2022-12-12T16:39:13.755Z,12.90
2022-12-12T16:41:42.428Z,13.40
2022-12-12T16:44:10.574Z,14.10
2022-12-12T16:46:38.755Z,13.47
2022-12-12T16:49:10.571Z,13.50
2022-12-12T16:51:42.643Z,13.47
2022-12-12T16:54:15.619Z,14.33
2022-12-12T16:56:43.747Z,15.43
2022-12-12T16:59:11.892Z,13.50
2022-12-12T17:01:41.662Z,13.17
2022-12-12T17:04:17.180Z,13.70
2022-12-12T17:06:45.346Z,12.83
2022-12-12T17:09:14.815Z,13.43
2022-12-12T17:11:42.992Z,13.73
2022-12-12T17:14:13.047Z,15.27
2022-12-12T17:16:41.394Z,16.03
2022-12-12T17:19:09.569Z,16.10
2022-12-12T17:21:37.747Z,15.30
2022-12-12T17:24:06.026Z,14.00
2022-12-12T17:26:36.099Z,14.50
2022-12-12T17:29:04.305Z,15.33
2022-12-12T17:31:32.621Z,14.27
2022-12-12T17:34:02.306Z,13.90
2022-12-12T17:36:30.519Z,13.63
2022-12-12T17:38:58.704Z,15.67
2022-12-12T17:41:27.169Z,13.77
2022-12-12T17:43:57.491Z,13.93
2022-12-12T17:46:27.688Z,15.67
2022-12-12T17:48:56.916Z,15.43
2022-12-12T17:51:25.663Z,15.33
2022-12-12T17:53:54.514Z,15.70
2022-12-12T17:56:23.396Z,14.63
2022-12-12T17:58:52.400Z,16.60
2022-12-12T18:01:22.631Z,15.80
2022-12-12T18:03:51.402Z,16.07
2022-12-12T18:06:20.184Z,16.27
2022-12-12T18:08:48.522Z,16.47
2022-12-12T18:11:18.146Z,17.10
2022-12-12T18:13:48.407Z,16.47
2022-12-12T18:16:17.129Z,16.67
2022-12-12T18:18:46.738Z,17.23
2022-12-12T18:21:42.884Z,16.60
2022-12-12T18:24:04.207Z,17.03
2022-12-12T18:26:32.398Z,16.60
2022-12-12T18:29:01.425Z,15.87
2022-12-12T18:31:30.133Z,15.37
2022-12-12T18:33:59.699Z,16.13
2022-12-12T18:36:28.560Z,16.27
2022-12-12T18:38:57.052Z,15.23
2022-12-12T18:41:26.310Z,16.57
2022-12-12T18:43:54.587Z,16.63
2022-12-12T18:46:24.633Z,15.90
2022-12-12T18:48:52.871Z,16.43
2022-12-12T18:51:23.642Z,19.23
2022-12-12T18:53:52.675Z,18.07
2022-12-12T18:56:21.502Z,21.43
2022-12-12T18:58:49.986Z,19.73
2022-12-12T19:01:19.239Z,17.20
2022-12-12T19:03:48.064Z,16.87
2022-12-12T19:06:17.650Z,17.03
2022-12-12T19:08:47.187Z,19.00
2022-12-12T19:11:15.522Z,20.87
2022-12-12T19:13:43.739Z,20.57
2022-12-12T19:16:12.913Z,18.93
2022-12-12T19:18:41.473Z,19.63
2022-12-12T19:21:11.015Z,19.00
2022-12-12T19:23:39.489Z,19.63
2022-12-12T19:26:09.717Z,17.73
2022-12-12T19:28:38.223Z,18.67
2022-12-12T19:31:10.698Z,19.00
2022-12-12T19:33:39.036Z,19.93
2022-12-12T19:36:11.199Z,19.83
2022-12-12T19:38:39.424Z,19.27
2022-12-12T19:41:09.469Z,19.50
2022-12-12T19:43:37.786Z,19.10
2022-12-12T19:46:07.329Z,20.37
2022-12-12T19:48:35.571Z,20.87
2022-12-12T19:51:07.633Z,21.53
2022-12-12T19:53:37.850Z,19.03
2022-12-12T19:56:06.450Z,21.43
2022-12-12T19:58:38.551Z,22.10
2022-12-12T20:01:08.068Z,21.67
2022-12-12T20:03:36.487Z,21.53
2022-12-12T20:06:05.680Z,21.43
2022-12-12T20:08:34.387Z,23.03
2022-12-12T20:11:04.755Z,22.93
2022-12-12T20:13:33.184Z,22.50
2022-12-12T20:16:06.410Z,23.30
2022-12-12T20:18:34.610Z,23.37
2022-12-12T20:21:03.469Z,24.10
2022-12-12T20:23:31.826Z,23.73
2022-12-12T20:26:00.089Z,22.83
2022-12-12T20:28:28.344Z,22.93
2022-12-12T20:31:03.994Z,22.57
2022-12-12T20:33:33.536Z,21.23
2022-12-12T20:36:02.684Z,22.60
2022-12-12T20:38:31.324Z,21.43
2022-12-12T20:40:59.552Z,20.57
2022-12-12T20:43:28.534Z,19.97
2022-12-12T20:45:56.689Z,19.67
2022-12-12T20:48:24.873Z,19.23
2022-12-12T20:50:54.625Z,19.07
2022-12-12T20:53:23.569Z,20.17
2022-12-12T20:55:51.737Z,19.87
2022-12-12T20:58:19.885Z,20.40
2022-12-12T21:00:47.982Z,19.27
2022-12-12T21:03:16.158Z,18.50
2022-12-12T21:05:44.325Z,20.13
2022-12-12T21:08:13.823Z,17.93
2022-12-12T21:10:42.069Z,19.83
2022-12-12T21:13:10.231Z,18.93
2022-12-12T21:15:38.500Z,19.37
2022-12-12T21:18:06.666Z,18.80
2022-12-12T21:20:34.842Z,19.70
2022-12-12T21:23:02.952Z,20.50
2022-12-12T21:25:32.423Z,18.97
2022-12-12T21:28:00.593Z,21.43
2022-12-12T21:30:28.734Z,20.57
2022-12-12T21:32:56.874Z,20.60
2022-12-12T21:35:25.469Z,21.83
2022-12-12T21:37:53.578Z,20.83
2022-12-12T21:40:21.687Z,19.17
2022-12-12T21:42:51.130Z,20.27
2022-12-12T21:45:19.288Z,19.57
2022-12-12T21:47:47.478Z,20.67
2022-12-12T21:50:15.638Z,20.30
2022-12-12T21:53:03.764Z,19.70
2022-12-12T21:55:31.949Z,20.13
2022-12-12T21:58:01.443Z,21.13
2022-12-12T22:00:29.593Z,19.80
2022-12-12T22:02:57.796Z,21.30
2022-12-12T22:05:25.917Z,20.57
2022-12-12T22:07:55.277Z,19.50
2022-12-12T22:10:23.443Z,21.17
2022-12-12T22:12:57.010Z,20.90
2022-12-12T22:15:27.175Z,20.47
2022-12-12T22:17:55.537Z,20.03
2022-12-12T22:20:23.707Z,19.80
2022-12-12T22:22:51.829Z,19.10
2022-12-12T22:25:19.939Z,19.73
2022-12-12T22:27:48.095Z,19.80
2022-12-12T22:30:16.329Z,19.37
2022-12-12T22:32:45.973Z,18.87
2022-12-12T22:35:14.367Z,18.07
2022-12-12T22:37:42.594Z,18.30
2022-12-12T22:40:11.441Z,19.07
2022-12-12T22:42:39.600Z,18.70
2022-12-12T22:45:08.382Z,19.67
2022-12-12T22:47:36.545Z,19.57
2022-12-12T22:50:06.175Z,18.83
2022-12-12T22:52:34.831Z,18.00
2022-12-12T22:55:02.991Z,18.27
2022-12-12T22:57:31.132Z,18.60
2022-12-12T22:59:59.283Z,19.00
2022-12-12T23:02:27.452Z,17.93
2022-12-12T23:04:55.644Z,18.90
2022-12-12T23:07:25.229Z,19.33
2022-12-12T23:09:53.537Z,19.17
2022-12-12T23:12:22.555Z,19.17
2022-12-12T23:14:50.796Z,18.63
2022-12-12T23:17:18.959Z,18.77
2022-12-12T23:19:47.232Z,19.50
2022-12-12T23:22:15.406Z,18.67
2022-12-12T23:24:44.907Z,19.07
2022-12-12T23:27:13.105Z,19.07
2022-12-12T23:29:41.394Z,18.10
2022-12-12T23:32:09.556Z,19.47
2022-12-12T23:34:37.720Z,19.77
2022-12-12T23:37:05.872Z,18.80
2022-12-12T23:39:34.074Z,19.37
2022-12-12T23:42:03.590Z,19.97
2022-12-12T23:44:31.778Z,19.50
2022-12-12T23:46:59.886Z,18.63
2022-12-12T23:49:28.328Z,18.17
2022-12-12T23:51:57.162Z,19.30
2022-12-12T23:54:26.723Z,19.23
2022-12-12T23:56:55.893Z,19.50
2022-12-12T23:59:25.334Z,19.63
